Time;durP1;ratioP1;P1;durP2;ratioP2;P2;SDS_P1;SDS_P2;PMS_P1;PMS_P2;Temp;Humidity;BMP_temperature;BMP_pressure;BME280_temperature;BME280_humidity;BME280_pressure;Samples;Min_cycle;Max_cycle;Signal;HPM_P1;HPM_P2
2023/05/22 00:01:00;;;;;;;14.32;12.80;;;;;;;;;;9502456;30;20060;-79
2023/05/22 00:05:58;;;;;;;13.75;12.13;;;;;;;;;;9503058;30;20060;-80
2023/05/22 00:10:53;;;;;;;21.17;13.57;;;;;;;;;;9493427;30;20060;-79
2023/05/22 00:15:47;;;;;;;14.05;12.70;;;;;;;;;;9492858;30;20060;-80
2023/05/22 00:20:41;;;;;;;14.60;13.10;;;;;;;;;;9477444;30;20064;-79
2023/05/22 00:25:35;;;;;;;14.00;11.52;;;;;;;;;;9491691;30;20127;-79
2023/05/22 00:30:28;;;;;;;13.15;11.90;;;;;;;;;;9483867;30;20469;-79
2023/05/22 00:35:22;;;;;;;13.48;12.23;;;;;;;;;;9497949;30;20113;-79
2023/05/22 00:40:15;;;;;;;17.98;13.20;;;;;;;;;;9484718;30;20057;-79
2023/05/22 00:45:11;;;;;;;16.80;12.40;;;;;;;;;;9496510;30;20064;-79
2023/05/22 00:50:04;;;;;;;13.65;12.25;;;;;;;;;;9495999;30;20464;-79
2023/05/22 00:54:58;;;;;;;14.88;12.73;;;;;;;;;;9507761;30;20055;-80
2023/05/22 00:59:52;;;;;;;12.43;11.18;;;;;;;;;;9502697;30;20406;-80
2023/05/22 01:04:49;;;;;;;15.02;11.60;;;;;;;;;;9497545;30;20099;-79
2023/05/22 01:09:43;;;;;;;13.65;11.98;;;;;;;;;;9499017;30;20044;-79
2023/05/22 01:15:01;;;;;;;13.77;12.20;;;;;;;;;;9506099;30;20114;-80
2023/05/22 01:20:05;;;;;;;16.48;11.93;;;;;;;;;;9499559;30;20055;-80
2023/05/22 01:25:17;;;;;;;12.80;11.60;;;;;;;;;;9519008;30;20420;-79
2023/05/22 01:30:34;;;;;;;13.05;11.75;;;;;;;;;;9506057;30;20078;-79
2023/05/22 01:35:28;;;;;;;15.25;12.70;;;;;;;;;;9496294;30;20052;-79
2023/05/22 01:40:21;;;;;;;13.82;12.43;;;;;;;;;;9470877;30;20060;-79
2023/05/22 01:45:14;;;;;;;14.23;12.73;;;;;;;;;;9492448;30;20056;-79
2023/05/22 01:50:09;;;;;;;14.38;12.85;;;;;;;;;;9478330;30;20160;-80
2023/05/22 01:55:12;;;;;;;14.48;13.05;;;;;;;;;;9505328;30;20131;-79
2023/05/22 02:00:13;;;;;;;14.80;13.20;;;;;;;;;;9499571;30;20056;-79
2023/05/22 02:05:26;;;;;;;15.25;12.82;;;;;;;;;;9503399;30;20067;-79
2023/05/22 02:10:20;;;;;;;31.63;13.35;;;;;;;;;;9491480;30;20576;-79
2023/05/22 02:15:13;;;;;;;19.65;13.32;;;;;;;;;;9492266;30;20088;-79
2023/05/22 02:20:14;;;;;;;16.27;12.70;;;;;;;;;;9504843;30;20055;-79
2023/05/22 02:25:13;;;;;;;17.30;14.43;;;;;;;;;;9471165;30;20068;-79
2023/05/22 02:30:08;;;;;;;15.02;13.30;;;;;;;;;;9489306;30;20568;-79
2023/05/22 02:35:02;;;;;;;14.20;12.70;;;;;;;;;;9475132;30;20068;-79
2023/05/22 02:39:55;;;;;;;14.23;12.75;;;;;;;;;;9466233;30;20048;-79
2023/05/22 02:44:49;;;;;;;16.65;12.30;;;;;;;;;;9500647;30;20206;-79
2023/05/22 02:49:42;;;;;;;16.92;12.40;;;;;;;;;;9494965;30;20064;-80
2023/05/22 02:54:35;;;;;;;14.93;13.40;;;;;;;;;;9507184;30;20063;-79
2023/05/22 02:59:29;;;;;;;15.10;12.95;;;;;;;;;;9492185;30;20079;-79
2023/05/22 03:04:23;;;;;;;20.67;14.80;;;;;;;;;;9504468;30;20063;-79
2023/05/22 03:09:16;;;;;;;16.95;13.95;;;;;;;;;;9488854;30;20056;-79
2023/05/22 03:14:10;;;;;;;15.15;13.50;;;;;;;;;;9496804;30;20071;-79
2023/05/22 03:19:12;;;;;;;20.77;13.45;;;;;;;;;;9475694;30;20111;-79
2023/05/22 03:24:08;;;;;;;15.02;12.70;;;;;;;;;;9510994;30;20052;-79
2023/05/22 03:29:01;;;;;;;14.73;13.00;;;;;;;;;;9471311;30;20103;-78
2023/05/22 03:33:55;;;;;;;16.13;12.35;;;;;;;;;;9495224;30;20463;-79
2023/05/22 03:38:49;;;;;;;16.15;13.90;;;;;;;;;;9501330;30;20472;-78
2023/05/22 03:43:43;;;;;;;14.75;13.15;;;;;;;;;;9490003;30;20468;-78
2023/05/22 03:48:37;;;;;;;14.82;13.07;;;;;;;;;;9467404;30;20059;-78
2023/05/22 03:53:30;;;;;;;15.10;13.60;;;;;;;;;;9499018;30;20057;-78
2023/05/22 03:58:26;;;;;;;15.65;13.07;;;;;;;;;;9494619;30;20143;-78
2023/05/22 04:03:20;;;;;;;15.13;13.38;;;;;;;;;;9504181;30;20066;-78
2023/05/22 04:08:14;;;;;;;16.80;13.65;;;;;;;;;;9501823;30;20138;-78
2023/05/22 04:13:07;;;;;;;17.08;14.18;;;;;;;;;;9478818;30;20151;-79
2023/05/22 04:18:00;;;;;;;18.23;13.55;;;;;;;;;;9487446;30;20425;-78
2023/05/22 04:22:53;;;;;;;18.50;13.48;;;;;;;;;;9502666;30;20059;-78
2023/05/22 04:27:49;;;;;;;18.00;14.60;;;;;;;;;;9494521;30;20064;-78
2023/05/22 04:32:44;;;;;;;15.38;13.20;;;;;;;;;;9478434;30;20138;-78
2023/05/22 04:37:41;;;;;;;20.50;14.60;;;;;;;;;;9490726;30;20056;-78
2023/05/22 04:42:34;;;;;;;18.33;14.80;;;;;;;;;;9514842;30;20076;-78
2023/05/22 04:47:30;;;;;;;17.08;14.63;;;;;;;;;;9479569;30;20065;-78
2023/05/22 04:52:28;;;;;;;21.40;15.00;;;;;;;;;;9498269;30;20063;-77
2023/05/22 04:57:24;;;;;;;17.50;15.68;;;;;;;;;;9491985;30;20078;-78
2023/05/22 05:02:18;;;;;;;19.38;16.45;;;;;;;;;;9494495;30;20083;-77
2023/05/22 05:07:12;;;;;;;20.75;15.80;;;;;;;;;;9484276;30;20059;-78
2023/05/22 05:12:08;;;;;;;18.52;16.52;;;;;;;;;;9476475;30;20528;-78
2023/05/22 05:17:02;;;;;;;18.70;16.20;;;;;;;;;;9497093;30;20056;-78
2023/05/22 05:21:55;;;;;;;20.65;15.52;;;;;;;;;;9495019;30;20036;-77
2023/05/22 05:26:50;;;;;;;18.75;15.15;;;;;;;;;;9475331;30;20048;-76
2023/05/22 05:31:45;;;;;;;17.83;16.05;;;;;;;;;;9503635;30;20060;-73
2023/05/22 05:37:04;;;;;;;17.52;14.75;;;;;;;;;;9493333;30;20436;-71
2023/05/22 05:41:59;;;;;;;18.13;14.68;;;;;;;;;;9500906;30;20113;-71
2023/05/22 05:46:53;;;;;;;19.13;15.43;;;;;;;;;;9509345;30;20418;-72
2023/05/22 05:51:46;;;;;;;16.70;14.13;;;;;;;;;;9492336;30;20071;-73
2023/05/22 05:56:41;;;;;;;16.23;14.32;;;;;;;;;;9491649;30;20071;-70
2023/05/22 06:01:35;;;;;;;21.70;13.75;;;;;;;;;;9480040;30;20060;-71
2023/05/22 06:06:34;;;;;;;15.75;13.10;;;;;;;;;;9493639;30;20126;-70
2023/05/22 06:11:34;;;;;;;16.83;13.73;;;;;;;;;;9499857;30;20049;-71
2023/05/22 06:16:28;;;;;;;13.68;12.27;;;;;;;;;;9499579;30;20064;-71
2023/05/22 06:21:23;;;;;;;13.68;12.25;;;;;;;;;;9496969;30;20083;-72
2023/05/22 06:26:18;;;;;;;15.75;13.10;;;;;;;;;;9500538;30;20091;-73
2023/05/22 06:31:13;;;;;;;20.88;13.00;;;;;;;;;;9498415;30;20060;-72
2023/05/22 06:36:10;;;;;;;14.48;12.93;;;;;;;;;;9499237;30;20636;-72
2023/05/22 06:41:04;;;;;;;15.30;13.25;;;;;;;;;;9505331;30;20060;-74
2023/05/22 06:45:58;;;;;;;16.05;12.45;;;;;;;;;;9494397;30;20060;-73
2023/05/22 06:51:03;;;;;;;14.65;13.15;;;;;;;;;;9509688;30;20059;-72
2023/05/22 06:55:57;;;;;;;13.80;12.15;;;;;;;;;;9510243;30;20148;-73
2023/05/22 07:01:10;;;;;;;13.75;12.27;;;;;;;;;;9483996;30;20052;-75
2023/05/22 07:06:12;;;;;;;12.60;11.40;;;;;;;;;;9488455;30;20052;-70
2023/05/22 07:11:07;;;;;;;14.55;11.80;;;;;;;;;;9482607;30;20066;-71
2023/05/22 07:16:01;;;;;;;14.50;12.57;;;;;;;;;;9492209;30;20428;-71
2023/05/22 07:20:55;;;;;;;13.73;12.30;;;;;;;;;;9497801;30;20572;-76
2023/05/22 07:25:49;;;;;;;13.07;11.77;;;;;;;;;;9486009;30;20066;-75
2023/05/22 07:30:45;;;;;;;13.32;11.40;;;;;;;;;;9497594;30;20099;-74
2023/05/22 07:35:40;;;;;;;13.38;11.77;;;;;;;;;;9495443;30;20060;-74
2023/05/22 07:40:33;;;;;;;13.35;10.52;;;;;;;;;;9510040;30;20090;-73
2023/05/22 07:45:26;;;;;;;16.33;11.65;;;;;;;;;;9487295;30;20134;-74
2023/05/22 07:50:22;;;;;;;15.25;12.48;;;;;;;;;;9496059;30;20147;-74
2023/05/22 07:55:16;;;;;;;12.70;11.15;;;;;;;;;;9496026;30;20091;-74
2023/05/22 08:00:15;;;;;;;22.88;12.38;;;;;;;;;;9480936;30;20052;-73
2023/05/22 08:05:11;;;;;;;12.53;11.03;;;;;;;;;;9489193;30;20501;-75
2023/05/22 08:10:30;;;;;;;31.17;13.18;;;;;;;;;;9481330;30;20447;-75
2023/05/22 08:15:46;;;;;;;13.02;11.18;;;;;;;;;;9481508;30;20084;-75
2023/05/22 08:20:41;;;;;;;15.05;11.00;;;;;;;;;;9488271;30;20110;-75
2023/05/22 08:25:35;;;;;;;72.55;14.88;;;;;;;;;;9490066;30;20996;-76
2023/05/22 08:30:29;;;;;;;15.23;10.18;;;;;;;;;;9490828;30;20056;-75
2023/05/22 08:35:22;;;;;;;10.90;9.70;;;;;;;;;;9481285;30;20060;-77
2023/05/22 08:40:16;;;;;;;21.52;11.43;;;;;;;;;;9493880;30;20126;-76
2023/05/22 08:45:11;;;;;;;11.30;9.23;;;;;;;;;;9493061;30;20060;-76
2023/05/22 08:50:08;;;;;;;11.27;9.65;;;;;;;;;;9491552;30;20414;-73
2023/05/22 08:55:03;;;;;;;10.25;8.90;;;;;;;;;;9497154;29;20060;-74
2023/05/22 08:59:58;;;;;;;10.77;9.65;;;;;;;;;;9507271;30;20078;-73
2023/05/22 09:04:53;;;;;;;13.73;8.90;;;;;;;;;;9503289;30;20092;-76
2023/05/22 09:09:46;;;;;;;9.20;8.10;;;;;;;;;;9507625;30;20059;-77
2023/05/22 09:14:43;;;;;;;9.45;8.07;;;;;;;;;;9504260;30;20064;-71
2023/05/22 09:19:36;;;;;;;9.55;7.50;;;;;;;;;;9504940;30;20080;-72
2023/05/22 09:24:29;;;;;;;8.90;6.72;;;;;;;;;;9513562;30;20056;-73
2023/05/22 09:29:23;;;;;;;12.98;7.13;;;;;;;;;;9491132;29;20048;-74
2023/05/22 09:34:16;;;;;;;8.10;6.63;;;;;;;;;;9516932;30;20398;-74
2023/05/22 09:39:09;;;;;;;8.40;6.43;;;;;;;;;;9490083;30;20083;-73
2023/05/22 09:44:13;;;;;;;9.68;6.53;;;;;;;;;;9495157;30;20058;-74
2023/05/22 09:49:07;;;;;;;10.32;6.53;;;;;;;;;;9496019;30;20135;-74
2023/05/22 09:54:02;;;;;;;12.38;6.45;;;;;;;;;;9519256;30;20072;-69
2023/05/22 09:58:57;;;;;;;8.50;6.13;;;;;;;;;;9502762;30;20060;-74
2023/05/22 10:03:54;;;;;;;10.13;6.68;;;;;;;;;;9497599;30;20142;-75
2023/05/22 10:08:55;;;;;;;7.10;5.28;;;;;;;;;;9504900;30;20098;-72
2023/05/22 10:13:49;;;;;;;8.80;6.28;;;;;;;;;;9498495;30;20056;-72
2023/05/22 10:18:44;;;;;;;7.78;5.70;;;;;;;;;;9506919;30;20509;-72
2023/05/22 10:23:39;;;;;;;7.75;6.10;;;;;;;;;;9492972;30;20044;-73
2023/05/22 10:28:41;;;;;;;7.95;5.13;;;;;;;;;;9475919;30;20057;-73
2023/05/22 10:33:40;;;;;;;6.38;4.93;;;;;;;;;;9488965;30;20143;-73
2023/05/22 10:38:58;;;;;;;5.95;5.35;;;;;;;;;;9504437;30;20526;-72
2023/05/22 10:43:56;;;;;;;5.68;5.10;;;;;;;;;;9493745;30;20060;-73
2023/05/22 10:48:53;;;;;;;9.63;5.72;;;;;;;;;;9505699;30;20063;-73
2023/05/22 10:53:54;;;;;;;8.38;5.30;;;;;;;;;;9505566;30;20413;-73
2023/05/22 10:59:06;;;;;;;11.70;6.57;;;;;;;;;;9505505;30;20075;-73
2023/05/22 11:04:05;;;;;;;7.85;5.10;;;;;;;;;;9495090;30;20056;-73
2023/05/22 11:09:01;;;;;;;10.88;6.03;;;;;;;;;;9501095;30;20064;-73
2023/05/22 11:14:19;;;;;;;6.80;5.60;;;;;;;;;;9493777;30;20083;-73
2023/05/22 11:19:14;;;;;;;5.75;5.18;;;;;;;;;;9503443;30;20460;-73
2023/05/22 11:24:18;;;;;;;7.75;5.75;;;;;;;;;;9497725;30;20059;-73
2023/05/22 11:29:11;;;;;;;8.75;6.03;;;;;;;;;;9489146;30;20517;-73
2023/05/22 11:34:05;;;;;;;8.60;5.50;;;;;;;;;;9478987;30;20060;-73
2023/05/22 11:38:59;;;;;;;7.50;5.30;;;;;;;;;;9478478;30;20048;-73
2023/05/22 11:43:53;;;;;;;5.67;4.70;;;;;;;;;;9497874;30;20094;-74
2023/05/22 11:48:47;;;;;;;5.35;4.72;;;;;;;;;;9509630;30;20076;-74
2023/05/22 11:53:40;;;;;;;7.93;4.82;;;;;;;;;;9494968;30;20533;-74
2023/05/22 11:58:34;;;;;;;7.60;4.83;;;;;;;;;;9495451;30;20052;-73
2023/05/22 12:03:29;;;;;;;9.18;4.65;;;;;;;;;;9490706;30;20060;-74
2023/05/22 12:08:22;;;;;;;;;;;;;;;;;;9516710;30;20077;-73
2023/05/22 12:13:26;;;;;;;6.20;4.53;;;;;;;;;;9496305;30;19933;-76
2023/05/22 12:18:21;;;;;;;7.63;4.05;;;;;;;;;;9498168;30;20114;-76
2023/05/22 12:23:25;;;;;;;8.77;4.80;;;;;;;;;;9492560;30;20524;-77
2023/05/22 12:28:19;;;;;;;7.43;4.47;;;;;;;;;;9499258;30;20094;-76
2023/05/22 12:33:16;;;;;;;8.43;4.63;;;;;;;;;;9494868;30;20072;-76
2023/05/22 12:38:30;;;;;;;7.35;5.35;;;;;;;;;;9499703;30;20509;-72
2023/05/22 12:43:26;;;;;;;7.15;4.07;;;;;;;;;;9497929;30;20064;-75
2023/05/22 12:48:20;;;;;;;5.00;4.47;;;;;;;;;;9507884;30;20059;-74
2023/05/22 12:53:14;;;;;;;4.70;4.25;;;;;;;;;;9499934;30;20071;-75
2023/05/22 12:58:08;;;;;;;7.80;4.40;;;;;;;;;;9491026;30;20056;-74
2023/05/22 13:03:02;;;;;;;5.18;4.00;;;;;;;;;;9504307;30;20060;-75
2023/05/22 13:07:55;;;;;;;4.90;4.40;;;;;;;;;;9515387;30;20087;-78
2023/05/22 13:12:50;;;;;;;5.68;3.83;;;;;;;;;;9510396;30;20094;-77
2023/05/22 13:17:44;;;;;;;;;;;;;;;;;;9509790;30;20127;-77
2023/05/22 13:22:38;;;;;;;12.25;5.30;;;;;;;;;;9502589;30;20003;-79
2023/05/22 13:27:32;;;;;;;8.20;4.53;;;;;;;;;;9504182;30;20048;-79
2023/05/22 13:32:25;;;;;;;7.07;4.93;;;;;;;;;;9500343;30;20060;-71
2023/05/22 13:37:19;;;;;;;6.15;4.95;;;;;;;;;;9493892;30;20060;-77
2023/05/22 13:42:13;;;;;;;12.77;4.95;;;;;;;;;;9498741;30;20066;-79
2023/05/22 13:47:06;;;;;;;7.80;4.88;;;;;;;;;;9495617;30;20152;-79
2023/05/22 13:52:00;;;;;;;7.13;5.30;;;;;;;;;;9496661;30;20135;-79
2023/05/22 13:56:52;;;;;;;5.97;5.30;;;;;;;;;;9495232;30;20049;-77
2023/05/22 14:01:46;;;;;;;8.38;4.68;;;;;;;;;;9501688;30;20084;-77
2023/05/22 14:06:40;;;;;;;9.13;5.40;;;;;;;;;;9503558;30;20060;-79
2023/05/22 14:11:34;;;;;;;5.97;5.15;;;;;;;;;;9501305;30;20051;-79
2023/05/22 14:16:28;;;;;;;6.35;4.90;;;;;;;;;;9495107;30;20201;-77
2023/05/22 14:21:22;;;;;;;8.93;5.88;;;;;;;;;;9495762;30;20063;-78
2023/05/22 14:26:15;;;;;;;7.47;5.28;;;;;;;;;;9500496;30;20512;-77
2023/05/22 14:31:11;;;;;;;8.95;6.07;;;;;;;;;;9491712;30;20060;-78
2023/05/22 14:36:05;;;;;;;9.50;5.72;;;;;;;;;;9495995;30;20064;-75
2023/05/22 14:40:59;;;;;;;6.22;5.50;;;;;;;;;;9493890;30;20059;-80
2023/05/22 14:45:55;;;;;;;6.63;5.95;;;;;;;;;;9506075;30;20528;-77
2023/05/22 14:50:48;;;;;;;8.00;7.22;;;;;;;;;;9506664;30;20067;-81
2023/05/22 14:55:41;;;;;;;8.13;6.38;;;;;;;;;;9503902;30;20064;-81
2023/05/22 15:00:35;;;;;;;14.63;6.05;;;;;;;;;;9515663;30;20139;-81
2023/05/22 15:05:28;;;;;;;8.75;5.65;;;;;;;;;;9491183;30;20669;-80
2023/05/22 15:10:22;;;;;;;7.38;6.00;;;;;;;;;;9497160;30;20055;-79
2023/05/22 15:15:15;;;;;;;8.82;5.95;;;;;;;;;;9488385;30;20060;-80
2023/05/22 15:20:11;;;;;;;6.57;5.82;;;;;;;;;;9498854;30;20064;-79
2023/05/22 15:25:10;;;;;;;11.65;6.95;;;;;;;;;;9480691;30;20067;-80
2023/05/22 15:30:05;;;;;;;8.20;5.50;;;;;;;;;;9500057;30;20058;-79
2023/05/22 15:34:59;;;;;;;7.57;6.88;;;;;;;;;;9484172;30;20056;-80
2023/05/22 15:39:53;;;;;;;6.82;6.18;;;;;;;;;;9482081;30;20109;-78
2023/05/22 15:44:47;;;;;;;7.10;6.20;;;;;;;;;;9484101;30;20091;-79
2023/05/22 15:49:41;;;;;;;9.63;5.45;;;;;;;;;;9490522;30;20060;-79
2023/05/22 15:54:35;;;;;;;9.30;6.05;;;;;;;;;;9500954;30;20056;-79
2023/05/22 15:59:29;;;;;;;6.93;5.55;;;;;;;;;;9487629;30;20060;-78
2023/05/22 16:04:21;;;;;;;11.57;5.43;;;;;;;;;;9488934;30;20068;-78
2023/05/22 16:09:17;;;;;;;9.10;6.38;;;;;;;;;;9490068;30;20058;-76
2023/05/22 16:14:11;;;;;;;11.25;5.88;;;;;;;;;;9491951;30;20060;-77
2023/05/22 16:19:05;;;;;;;6.05;5.47;;;;;;;;;;9508784;30;20482;-75
2023/05/22 16:23:59;;;;;;;11.10;6.03;;;;;;;;;;9477450;30;20517;-75
2023/05/22 16:28:52;;;;;;;8.00;5.88;;;;;;;;;;9481522;30;20065;-67
2023/05/22 16:33:47;;;;;;;8.77;5.70;;;;;;;;;;9509577;30;20175;-68
2023/05/22 16:38:40;;;;;;;10.48;5.28;;;;;;;;;;9490566;30;20459;-67
2023/05/22 16:43:35;;;;;;;10.63;5.90;;;;;;;;;;9496786;30;20155;-67
2023/05/22 16:48:29;;;;;;;6.85;5.53;;;;;;;;;;9512544;30;20070;-67
2023/05/22 16:53:22;;;;;;;7.38;5.88;;;;;;;;;;9499430;30;20560;-67
2023/05/22 16:58:15;;;;;;;10.27;5.30;;;;;;;;;;9499011;30;20406;-67
2023/05/22 17:03:10;;;;;;;7.70;5.55;;;;;;;;;;9498232;30;20066;-67
2023/05/22 17:08:05;;;;;;;9.50;5.72;;;;;;;;;;9499836;30;20064;-67
2023/05/22 17:12:59;;;;;;;6.07;5.45;;;;;;;;;;9487161;30;20084;-67
2023/05/22 17:17:53;;;;;;;7.50;5.75;;;;;;;;;;9503445;30;20056;-67
2023/05/22 17:22:47;;;;;;;7.18;5.53;;;;;;;;;;9484660;30;20517;-67
2023/05/22 17:27:41;;;;;;;8.23;5.93;;;;;;;;;;9487622;30;20092;-67
2023/05/22 17:32:35;;;;;;;22.50;6.70;;;;;;;;;;9497377;30;20438;-67
2023/05/22 17:37:29;;;;;;;6.82;5.45;;;;;;;;;;9495295;30;20093;-67
2023/05/22 17:42:21;;;;;;;12.68;7.07;;;;;;;;;;9522397;30;20086;-69
2023/05/22 17:47:15;;;;;;;8.70;6.13;;;;;;;;;;9497418;30;20110;-67
2023/05/22 17:52:09;;;;;;;6.88;6.25;;;;;;;;;;9507240;30;20135;-68
2023/05/22 17:57:03;;;;;;;10.25;6.93;;;;;;;;;;9517213;30;20052;-67
2023/05/22 18:01:57;;;;;;;9.48;6.38;;;;;;;;;;9503351;30;20067;-70
2023/05/22 18:06:50;;;;;;;9.90;6.13;;;;;;;;;;9521375;30;20110;-67
2023/05/22 18:11:44;;;;;;;14.70;6.55;;;;;;;;;;9492302;30;20105;-67
2023/05/22 18:16:38;;;;;;;14.48;7.28;;;;;;;;;;9504769;30;20067;-66
2023/05/22 18:21:31;;;;;;;7.30;6.25;;;;;;;;;;9504770;30;20505;-67
2023/05/22 18:26:25;;;;;;;11.40;7.55;;;;;;;;;;9505914;30;20064;-66
2023/05/22 18:31:20;;;;;;;13.93;8.90;;;;;;;;;;9499341;30;20067;-66
2023/05/22 18:36:15;;;;;;;8.25;7.45;;;;;;;;;;9498551;30;20056;-68
2023/05/22 18:41:08;;;;;;;7.70;6.88;;;;;;;;;;9481673;30;20715;-66
2023/05/22 18:46:02;;;;;;;13.45;7.13;;;;;;;;;;9492202;30;20539;-68
2023/05/22 18:50:56;;;;;;;8.52;7.60;;;;;;;;;;9494387;30;20106;-68
2023/05/22 18:55:51;;;;;;;8.18;6.47;;;;;;;;;;9492776;30;20056;-68
2023/05/22 19:00:44;;;;;;;9.27;7.50;;;;;;;;;;9489138;30;20064;-69
2023/05/22 19:05:39;;;;;;;9.88;7.57;;;;;;;;;;9491868;30;20060;-67
2023/05/22 19:10:32;;;;;;;9.63;7.65;;;;;;;;;;9499355;30;20064;-68
2023/05/22 19:15:25;;;;;;;9.85;7.40;;;;;;;;;;9496382;30;20052;-68
2023/05/22 19:20:19;;;;;;;10.65;7.78;;;;;;;;;;9495936;30;20524;-75
2023/05/22 19:25:14;;;;;;;10.35;8.80;;;;;;;;;;9491393;30;20064;-71
2023/05/22 19:30:17;;;;;;;8.10;7.40;;;;;;;;;;9502896;30;20056;-69
2023/05/22 19:35:11;;;;;;;12.95;8.73;;;;;;;;;;9494319;30;20078;-68
2023/05/22 19:40:08;;;;;;;13.13;7.60;;;;;;;;;;9519134;30;20489;-69
2023/05/22 19:45:04;;;;;;;9.48;8.20;;;;;;;;;;9496499;30;20058;-72
2023/05/22 19:49:58;;;;;;;11.82;7.97;;;;;;;;;;9492025;30;20059;-68
2023/05/22 19:54:52;;;;;;;11.05;7.97;;;;;;;;;;9494777;30;20467;-68
2023/05/22 19:59:46;;;;;;;15.70;11.00;;;;;;;;;;9493296;30;20068;-67
2023/05/22 20:04:42;;;;;;;12.48;8.40;;;;;;;;;;9494939;30;20060;-63
2023/05/22 20:09:36;;;;;;;19.95;9.27;;;;;;;;;;9498599;30;20063;-68
2023/05/22 20:14:29;;;;;;;12.85;8.88;;;;;;;;;;9489590;30;20529;-69
2023/05/22 20:19:24;;;;;;;11.32;9.75;;;;;;;;;;9495173;30;20045;-69
2023/05/22 20:24:20;;;;;;;13.85;9.63;;;;;;;;;;9499135;30;20055;-71
2023/05/22 20:29:13;;;;;;;12.43;9.27;;;;;;;;;;9483790;30;20431;-71
2023/05/22 20:34:08;;;;;;;12.23;9.68;;;;;;;;;;9496119;30;20528;-70
2023/05/22 20:39:01;;;;;;;9.77;8.88;;;;;;;;;;9496170;30;20056;-69
2023/05/22 20:43:54;;;;;;;12.05;7.90;;;;;;;;;;9493230;29;21518;-67
2023/05/22 20:48:48;;;;;;;14.07;8.25;;;;;;;;;;9513665;30;20052;-68
2023/05/22 20:53:42;;;;;;;13.23;8.63;;;;;;;;;;9504464;30;20464;-67
2023/05/22 20:58:35;;;;;;;16.52;9.55;;;;;;;;;;9505919;30;20064;-67
2023/05/22 21:03:30;;;;;;;14.18;10.57;;;;;;;;;;9503923;30;20538;-68
2023/05/22 21:08:23;;;;;;;11.98;10.38;;;;;;;;;;9506148;30;20131;-68
2023/05/22 21:13:18;;;;;;;10.68;9.50;;;;;;;;;;9502336;30;20052;-68
2023/05/22 21:18:12;;;;;;;10.95;9.88;;;;;;;;;;9498798;30;20072;-67
2023/05/22 21:23:06;;;;;;;11.63;10.43;;;;;;;;;;9503459;30;20079;-67
2023/05/22 21:28:00;;;;;;;11.95;10.82;;;;;;;;;;9509450;30;20146;-67
2023/05/22 21:32:53;;;;;;;10.75;9.75;;;;;;;;;;9508531;30;20064;-68
2023/05/22 21:37:47;;;;;;;11.32;9.98;;;;;;;;;;9504339;30;20113;-67
2023/05/22 21:42:43;;;;;;;14.88;10.13;;;;;;;;;;9502920;30;20122;-68
2023/05/22 21:47:39;;;;;;;12.23;9.90;;;;;;;;;;9506769;30;20135;-68
2023/05/22 21:52:33;;;;;;;13.90;10.43;;;;;;;;;;9505087;30;20064;-68
2023/05/22 21:57:26;;;;;;;11.40;10.00;;;;;;;;;;9507272;30;20508;-67
2023/05/22 22:02:19;;;;;;;12.27;10.93;;;;;;;;;;9507028;30;20056;-67
2023/05/22 22:07:12;;;;;;;20.00;10.73;;;;;;;;;;9495160;30;20061;-66
2023/05/22 22:12:07;;;;;;;16.75;11.00;;;;;;;;;;9497042;30;20542;-67
2023/05/22 22:17:04;;;;;;;13.40;11.77;;;;;;;;;;9501314;30;20056;-64
2023/05/22 22:21:57;;;;;;;21.50;11.80;;;;;;;;;;9500191;30;20048;-64
2023/05/22 22:26:51;;;;;;;14.93;11.25;;;;;;;;;;9518310;30;20064;-64
2023/05/22 22:31:45;;;;;;;13.82;11.60;;;;;;;;;;9501785;30;20639;-65
2023/05/22 22:36:39;;;;;;;16.00;12.88;;;;;;;;;;9503360;30;20063;-66
2023/05/22 22:41:31;;;;;;;14.15;12.80;;;;;;;;;;9500245;30;20099;-66
2023/05/22 22:46:25;;;;;;;15.43;13.25;;;;;;;;;;9503271;30;20064;-66
2023/05/22 22:51:18;;;;;;;14.45;13.07;;;;;;;;;;9502025;30;20052;-66
2023/05/22 22:56:12;;;;;;;14.52;11.80;;;;;;;;;;9502881;30;20137;-67
2023/05/22 23:01:05;;;;;;;12.90;11.70;;;;;;;;;;9492880;30;20432;-68
2023/05/22 23:05:58;;;;;;;17.83;12.13;;;;;;;;;;9504555;30;20056;-69
2023/05/22 23:10:52;;;;;;;16.58;13.15;;;;;;;;;;9492651;30;20056;-71
2023/05/22 23:15:47;;;;;;;21.80;12.85;;;;;;;;;;9505837;30;20076;-71
2023/05/22 23:20:41;;;;;;;12.65;11.45;;;;;;;;;;9505162;30;20083;-71
2023/05/22 23:25:35;;;;;;;15.45;11.30;;;;;;;;;;9505522;30;20056;-71
2023/05/22 23:30:28;;;;;;;21.05;11.23;;;;;;;;;;9500347;30;20068;-71
2023/05/22 23:35:21;;;;;;;15.23;11.70;;;;;;;;;;9505086;30;20080;-71
2023/05/22 23:40:14;;;;;;;11.95;10.75;;;;;;;;;;9503143;30;20190;-71
2023/05/22 23:45:09;;;;;;;13.88;11.25;;;;;;;;;;9503690;30;20080;-71
2023/05/22 23:50:03;;;;;;;12.77;11.10;;;;;;;;;;9513120;30;20044;-71
2023/05/22 23:54:57;;;;;;;13.82;11.90;;;;;;;;;;9503661;30;20070;-71
2023/05/22 23:59:51;;;;;;;11.55;10.15;;;;;;;;;;9503166;30;20059;-71
